Time;durP1;ratioP1;P1;durP2;ratioP2;P2;SDS_P1;SDS_P2;PMS_P1;PMS_P2;Temp;Humidity;BMP_temperature;BMP_pressure;BME280_temperature;BME280_humidity;BME280_pressure;Samples;Min_cycle;Max_cycle;Signal;HPM_P1;HPM_P2
2022/01/19 00:00:32;;;;;;;18.07;16.13;;;;;21.20;102097.00;;;;2088642;28;20244;-60
2022/01/19 00:01:33;;;;;;;18.80;15.70;;;;;21.20;102104.00;;;;2088651;28;20216;-61
2022/01/19 00:02:33;;;;;;;16.80;15.00;;;;;21.20;102097.00;;;;2088722;28;20224;-60
2022/01/19 00:03:34;;;;;;;21.20;17.07;;;;;21.20;102101.00;;;;2087831;28;20244;-60
2022/01/19 00:04:34;;;;;;;18.93;16.47;;;;;21.20;102090.00;;;;2088614;28;20217;-61
2022/01/19 00:05:34;;;;;;;19.23;16.00;;;;;21.20;102096.00;;;;2087986;28;20267;-61
2022/01/19 00:06:35;;;;;;;18.90;14.83;;;;;21.20;102102.00;;;;2087897;28;20588;-61
2022/01/19 00:07:35;;;;;;;18.60;15.57;;;;;21.20;102102.00;;;;2088417;28;20651;-61
2022/01/19 00:08:35;;;;;;;16.97;14.40;;;;;21.20;102094.00;;;;2088683;28;20562;-61
2022/01/19 00:09:36;;;;;;;17.90;14.83;;;;;21.20;102101.00;;;;2089175;28;20220;-60
2022/01/19 00:10:36;;;;;;;17.00;14.73;;;;;21.20;102105.00;;;;2088474;28;20216;-61
2022/01/19 00:11:36;;;;;;;17.30;15.00;;;;;21.20;102099.00;;;;2089110;28;20244;-61
2022/01/19 00:12:37;;;;;;;15.30;13.63;;;;;21.20;102095.00;;;;2089173;28;20216;-61
2022/01/19 00:13:37;;;;;;;16.53;14.37;;;;;21.20;102098.00;;;;2088296;28;20335;-61
2022/01/19 00:14:37;;;;;;;15.90;13.50;;;;;21.20;102096.00;;;;2088381;28;20295;-61
2022/01/19 00:15:38;;;;;;;17.20;13.87;;;;;21.20;102102.00;;;;2089119;28;20683;-60
2022/01/19 00:16:38;;;;;;;15.40;13.57;;;;;21.10;102099.00;;;;2088865;28;20236;-60
2022/01/19 00:17:39;;;;;;;15.17;13.10;;;;;21.10;102101.00;;;;2088373;28;20213;-60
2022/01/19 00:18:39;;;;;;;18.87;14.60;;;;;21.10;102107.00;;;;2089052;28;20387;-60
2022/01/19 00:19:39;;;;;;;15.93;13.33;;;;;21.10;102092.00;;;;2088974;28;20594;-61
2022/01/19 00:20:40;;;;;;;13.40;12.00;;;;;21.10;102098.00;;;;2088769;28;20599;-61
2022/01/19 00:21:40;;;;;;;15.07;13.23;;;;;21.10;102082.00;;;;2089014;28;20644;-60
2022/01/19 00:22:40;;;;;;;14.90;12.10;;;;;21.10;102084.00;;;;2089016;28;20688;-60
2022/01/19 00:23:41;;;;;;;13.87;12.47;;;;;21.10;102086.00;;;;2089039;28;20668;-61
2022/01/19 00:24:42;;;;;;;13.77;12.30;;;;;21.10;102076.00;;;;2088891;28;20850;-61
2022/01/19 00:25:43;;;;;;;14.38;12.25;;;;;21.10;102078.00;;;;2078133;28;20773;-61
2022/01/19 00:26:43;;;;;;;14.33;12.43;;;;;21.10;102068.00;;;;2088268;28;20282;-60
2022/01/19 00:27:43;;;;;;;13.77;12.10;;;;;21.10;102056.00;;;;2088964;28;20676;-61
2022/01/19 00:28:44;;;;;;;14.03;12.27;;;;;21.10;102045.00;;;;2088813;28;20244;-61
2022/01/19 00:29:44;;;;;;;15.50;13.60;;;;;21.10;102037.00;;;;2088822;28;20633;-60
2022/01/19 00:30:44;;;;;;;14.17;12.40;;;;;21.10;102040.00;;;;2088691;28;20201;-60
2022/01/19 00:31:45;;;;;;;14.23;12.10;;;;;21.10;102025.00;;;;2088698;28;20216;-60
2022/01/19 00:32:45;;;;;;;13.00;11.70;;;;;21.10;102023.00;;;;2088429;28;20205;-60
2022/01/19 00:33:45;;;;;;;12.00;10.80;;;;;21.10;102017.00;;;;2088754;28;20217;-61
2022/01/19 00:34:46;;;;;;;13.97;11.53;;;;;21.00;102008.00;;;;2085308;28;20204;-61
2022/01/19 00:35:47;;;;;;;13.07;11.13;;;;;21.10;102004.00;;;;2088524;28;20301;-61
2022/01/19 00:36:47;;;;;;;14.15;10.73;;;;;21.00;101999.00;;;;2088761;28;20622;-60
2022/01/19 00:37:48;;;;;;;12.53;11.20;;;;;21.00;102000.00;;;;2088882;28;20221;-60
2022/01/19 00:38:48;;;;;;;13.50;11.20;;;;;21.00;101994.00;;;;2088621;28;20275;-60
2022/01/19 00:39:48;;;;;;;12.00;10.50;;;;;21.00;101990.00;;;;2087607;28;20236;-61
2022/01/19 00:40:49;;;;;;;12.40;11.10;;;;;21.00;101989.00;;;;2088091;28;20216;-61
2022/01/19 00:41:49;;;;;;;13.17;10.73;;;;;21.00;101993.00;;;;2087260;28;20232;-61
2022/01/19 00:42:50;;;;;;;13.17;11.33;;;;;21.00;101989.00;;;;2087964;28;20222;-60
2022/01/19 00:43:50;;;;;;;11.37;10.17;;;;;21.00;101980.00;;;;2082560;28;20205;-61
2022/01/19 00:44:50;;;;;;;11.53;10.33;;;;;21.00;101991.00;;;;2088604;28;20308;-60
2022/01/19 00:45:51;;;;;;;12.00;9.97;;;;;21.00;101990.00;;;;2088770;28;20209;-60
2022/01/19 00:46:51;;;;;;;11.40;10.10;;;;;21.00;101993.00;;;;2088212;28;20238;-60
2022/01/19 00:47:51;;;;;;;11.30;10.17;;;;;21.00;101992.00;;;;2088925;28;20209;-60
2022/01/19 00:48:52;;;;;;;12.67;10.07;;;;;21.00;101997.00;;;;2088845;28;20243;-60
2022/01/19 00:49:54;;;;;;;11.40;10.23;;;;;21.00;101997.00;;;;2088927;28;20209;-60
2022/01/19 00:50:55;;;;;;;10.80;9.65;;;;;21.00;102000.00;;;;2087687;28;20220;-60
2022/01/19 00:51:55;;;;;;;12.65;10.75;;;;;21.00;102002.00;;;;2088067;28;20287;-61
2022/01/19 00:52:56;;;;;;;10.30;9.27;;;;;21.00;101992.00;;;;2088841;28;20719;-60
2022/01/19 00:53:56;;;;;;;10.77;9.67;;;;;21.00;101992.00;;;;2088582;28;20787;-60
2022/01/19 00:54:56;;;;;;;11.73;9.33;;;;;21.00;101987.00;;;;2088702;28;20700;-60
2022/01/19 00:55:56;;;;;;;10.30;9.03;;;;;21.00;101990.00;;;;2088787;28;20704;-61
2022/01/19 00:56:57;;;;;;;10.27;9.27;;;;;21.00;101988.00;;;;2088262;28;20224;-60
2022/01/19 00:57:57;;;;;;;10.23;9.23;;;;;21.00;101985.00;;;;2088636;28;20216;-60
2022/01/19 00:58:59;;;;;;;12.47;10.27;;;;;21.00;101978.00;;;;2088769;28;20236;-60
2022/01/19 00:59:59;;;;;;;10.80;9.63;;;;;21.00;101979.00;;;;2088768;28;20232;-60
2022/01/19 01:01:00;;;;;;;10.57;9.47;;;;;21.00;101971.00;;;;2088355;28;20220;-60
2022/01/19 01:02:00;;;;;;;10.50;8.77;;;;;20.90;101962.00;;;;2088425;28;20336;-61
2022/01/19 01:03:02;;;;;;;11.47;10.10;;;;;21.00;101969.00;;;;2087739;28;20224;-60
2022/01/19 01:04:02;;;;;;;11.50;9.05;;;;;20.90;101963.00;;;;2088417;28;20212;-60
2022/01/19 01:05:03;;;;;;;11.27;8.60;;;;;20.90;101961.00;;;;2088612;28;20300;-61
2022/01/19 01:06:03;;;;;;;10.60;8.77;;;;;20.90;101958.00;;;;2088421;28;20231;-60
2022/01/19 01:07:03;;;;;;;12.40;9.40;;;;;20.90;101966.00;;;;2088538;28;20261;-60
2022/01/19 01:08:04;;;;;;;9.67;8.70;;;;;20.90;101971.00;;;;2088572;28;20232;-60
2022/01/19 01:09:04;;;;;;;10.47;8.60;;;;;20.90;101962.00;;;;2088432;28;20244;-60
2022/01/19 01:10:06;;;;;;;9.57;8.60;;;;;20.90;101954.00;;;;2084947;28;20694;-60
2022/01/19 01:11:07;;;;;;;10.75;9.05;;;;;20.90;101965.00;;;;2088426;28;20220;-60
2022/01/19 01:12:13;;;;;;;9.00;8.00;;;;;20.90;101959.00;;;;2088740;28;20239;-60
2022/01/19 01:16:05;;;;;;;8.32;7.43;;;;;20.90;101956.00;;;;2083983;28;20708;-60
2022/01/19 01:18:33;;;;;;;11.50;7.70;;;;;20.90;101963.00;;;;2064044;28;20210;-61
2022/01/19 01:19:33;;;;;;;9.60;8.18;;;;;20.90;101960.00;;;;2083621;28;20327;-60
2022/01/19 01:20:35;;;;;;;8.80;7.30;;;;;20.90;101949.00;;;;2088316;28;20684;-60
2022/01/19 01:21:36;;;;;;;9.48;7.72;;;;;20.90;101954.00;;;;2088636;28;20201;-60
2022/01/19 01:22:37;;;;;;;8.40;7.50;;;;;20.90;101954.00;;;;2088408;28;20618;-60
2022/01/19 01:23:38;;;;;;;8.40;7.50;;;;;20.90;101960.00;;;;2088429;28;20299;-60
2022/01/19 01:24:38;;;;;;;9.17;8.20;;;;;20.90;101957.00;;;;2088380;28;20205;-60
2022/01/19 01:25:38;;;;;;;9.97;7.90;;;;;20.80;101951.00;;;;2088200;28;20244;-60
2022/01/19 01:26:39;;;;;;;9.13;7.93;;;;;20.90;101953.00;;;;2088502;28;20227;-60
2022/01/19 01:27:39;;;;;;;9.30;7.70;;;;;20.90;101957.00;;;;2087754;28;20280;-60
2022/01/19 01:28:39;;;;;;;8.07;7.27;;;;;20.80;101972.00;;;;2087770;28;20215;-60
2022/01/19 01:29:41;;;;;;;9.40;8.13;;;;;20.90;101965.00;;;;2088487;28;20213;-61
2022/01/19 01:30:41;;;;;;;8.00;7.25;;;;;20.80;101965.00;;;;2087913;28;20235;-60
2022/01/19 01:31:41;;;;;;;8.77;7.80;;;;;20.80;101971.00;;;;2088476;28;20213;-60
2022/01/19 01:32:42;;;;;;;7.97;7.17;;;;;20.80;101963.00;;;;2088507;28;20217;-60
2022/01/19 01:33:42;;;;;;;7.33;6.63;;;;;20.80;101962.00;;;;2088440;28;20236;-60
2022/01/19 01:34:42;;;;;;;8.33;7.43;;;;;20.80;101952.00;;;;2088329;28;20213;-60
2022/01/19 01:35:43;;;;;;;7.37;6.60;;;;;20.80;101950.00;;;;2088226;28;20216;-60
2022/01/19 01:36:43;;;;;;;7.93;7.03;;;;;20.80;101946.00;;;;2088333;28;20236;-60
2022/01/19 01:37:43;;;;;;;7.90;7.13;;;;;20.80;101933.00;;;;2088324;28;20247;-61
2022/01/19 01:38:44;;;;;;;7.90;6.90;;;;;20.80;101932.00;;;;2088441;28;20209;-60
2022/01/19 01:39:44;;;;;;;8.43;7.60;;;;;20.80;101934.00;;;;2088207;28;20354;-60
2022/01/19 01:40:44;;;;;;;8.37;7.47;;;;;20.80;101929.00;;;;2087360;28;20657;-60
2022/01/19 01:41:45;;;;;;;8.20;7.27;;;;;20.80;101929.00;;;;2087631;28;20220;-60
2022/01/19 01:42:45;;;;;;;8.10;7.10;;;;;20.80;101927.00;;;;2088424;28;20225;-60
2022/01/19 01:43:46;;;;;;;8.20;7.37;;;;;20.80;101917.00;;;;2088420;28;20350;-60
2022/01/19 01:44:49;;;;;;;8.73;7.70;;;;;20.80;101903.00;;;;2083868;28;20236;-60
2022/01/19 01:45:54;;;;;;;9.07;7.38;;;;;20.80;101904.00;;;;2087751;28;20239;-60
2022/01/19 01:46:59;;;;;;;8.13;7.30;;;;;20.80;101915.00;;;;2087499;28;20212;-60
2022/01/19 01:48:20;;;;;;;9.02;7.22;;;;;20.80;101921.00;;;;2084089;28;20213;-60
2022/01/19 01:49:28;;;;;;;9.13;7.20;;;;;20.80;101916.00;;;;2084643;28;20220;-60
2022/01/19 01:54:25;;;;;;;8.20;7.25;;;;;20.80;101924.00;;;;2085857;28;20213;-60
2022/01/19 01:55:25;;;;;;;8.97;7.17;;;;;20.80;101930.00;;;;2087652;28;20212;-60
2022/01/19 01:56:26;;;;;;;7.87;6.87;;;;;20.80;101927.00;;;;2087479;28;20212;-60
2022/01/19 01:57:26;;;;;;;8.10;6.70;;;;;20.70;101924.00;;;;2088069;28;20257;-60
2022/01/19 01:58:27;;;;;;;7.50;6.80;;;;;20.70;101932.00;;;;2088248;28;20235;-60
2022/01/19 01:59:28;;;;;;;8.13;6.88;;;;;20.70;101928.00;;;;2088132;28;20578;-60
2022/01/19 02:00:28;;;;;;;8.20;7.40;;;;;20.70;101930.00;;;;2087831;28;20215;-60
2022/01/19 02:01:29;;;;;;;7.07;6.37;;;;;20.70;101934.00;;;;2088247;28;20719;-60
2022/01/19 02:02:29;;;;;;;7.83;7.13;;;;;20.70;101939.00;;;;2087919;28;20818;-60
2022/01/19 02:03:37;;;;;;;6.83;6.17;;;;;20.70;101935.00;;;;2088106;28;20462;-60
2022/01/19 02:04:41;;;;;;;9.43;6.88;;;;;20.70;101938.00;;;;2084715;28;20240;-60
2022/01/19 02:05:54;;;;;;;7.05;6.35;;;;;20.70;101944.00;;;;2087614;28;20270;-60
2022/01/19 02:08:35;;;;;;;7.68;6.10;;;;;20.70;101947.00;;;;2077793;28;20213;-61
2022/01/19 02:09:38;;;;;;;9.18;7.10;;;;;20.70;101942.00;;;;2083016;28;20462;-60
2022/01/19 02:10:56;;;;;;;6.60;5.90;;;;;20.70;101939.00;;;;2087336;28;20229;-60
2022/01/19 02:15:56;;;;;;;6.63;5.82;;;;;20.70;101941.00;;;;2078511;28;20296;-60
2022/01/19 02:22:12;;;;;;;6.60;5.90;;;;;20.60;101923.00;;;;2084544;28;20308;-60
2022/01/19 02:23:24;;;;;;;6.70;6.00;;;;;20.60;101920.00;;;;2088067;28;20213;-60
2022/01/19 02:24:28;;;;;;;7.38;6.00;;;;;20.60;101907.00;;;;2088025;28;20240;-60
2022/01/19 02:25:35;;;;;;;7.07;6.38;;;;;20.60;101917.00;;;;2087793;28;20571;-60
2022/01/19 02:26:56;;;;;;;7.38;5.80;;;;;20.60;101904.00;;;;2087883;28;20209;-60
2022/01/19 02:40:41;;;;;;;6.75;5.95;;;;;20.60;101878.00;;;;2083390;28;20212;-60
2022/01/19 02:41:43;;;;;;;5.97;5.45;;;;;20.60;101890.00;;;;2087498;28;20352;-60
2022/01/19 02:43:21;;;;;;;5.40;4.90;;;;;20.60;101877.00;;;;2087853;28;20205;-61
2022/01/19 02:44:16;;;;;;;6.13;5.10;;;;;20.60;101887.00;;;;2084568;28;20212;-60
2022/01/19 02:49:18;;;;;;;5.22;4.63;;;;;20.60;101870.00;;;;2085330;28;20224;-60
2022/01/19 02:50:18;;;;;;;6.30;5.18;;;;;20.60;101853.00;;;;2085054;28;20692;-61
2022/01/19 02:51:18;;;;;;;5.60;4.90;;;;;20.60;101844.00;;;;2086945;28;20217;-60
2022/01/19 02:52:19;;;;;;;5.00;4.50;;;;;20.60;101842.00;;;;2078966;28;20225;-60
2022/01/19 02:53:20;;;;;;;5.67;4.67;;;;;20.60;101842.00;;;;2087178;28;20224;-60
2022/01/19 02:54:24;;;;;;;6.77;5.40;;;;;20.60;101841.00;;;;2087762;28;20894;-60
2022/01/19 02:55:25;;;;;;;4.72;4.32;;;;;20.50;101841.00;;;;2087928;28;20773;-60
2022/01/19 02:56:30;;;;;;;5.07;4.57;;;;;20.60;101841.00;;;;2087852;28;20217;-60
2022/01/19 02:57:34;;;;;;;5.10;4.60;;;;;20.60;101831.00;;;;2087706;28;20220;-60
2022/01/19 02:58:41;;;;;;;5.57;4.97;;;;;20.60;101837.00;;;;2087475;28;20303;-60
2022/01/19 03:08:50;;;;;;;4.93;4.50;;;;;20.50;101804.00;;;;2086181;28;20216;-60
2022/01/19 03:09:50;;;;;;;4.80;4.30;;;;;20.50;101807.00;;;;2087820;28;20213;-60
2022/01/19 03:10:51;;;;;;;5.90;4.03;;;;;20.50;101804.00;;;;2087559;28;20240;-60
2022/01/19 03:11:51;;;;;;;4.77;4.20;;;;;20.50;101800.00;;;;2087928;28;20212;-60
2022/01/19 03:12:51;;;;;;;5.00;4.10;;;;;20.50;101803.00;;;;2086604;28;20688;-60
2022/01/19 03:13:52;;;;;;;4.47;4.07;;;;;20.50;101804.00;;;;2087121;28;20217;-60
2022/01/19 03:14:52;;;;;;;4.70;4.20;;;;;20.50;101800.00;;;;2083984;28;20213;-60
2022/01/19 03:15:52;;;;;;;4.60;4.20;;;;;20.50;101794.00;;;;2087470;28;20255;-60
2022/01/19 03:16:53;;;;;;;6.23;3.77;;;;;20.50;101789.00;;;;2087736;28;20208;-60
2022/01/19 03:17:57;;;;;;;4.70;4.17;;;;;20.50;101789.00;;;;2087830;28;20239;-60
2022/01/19 03:18:58;;;;;;;4.90;4.25;;;;;20.50;101782.00;;;;2087160;28;20228;-60
2022/01/19 03:19:58;;;;;;;5.27;4.20;;;;;20.50;101782.00;;;;2087679;28;20220;-60
2022/01/19 03:20:59;;;;;;;4.47;4.07;;;;;20.50;101776.00;;;;2089152;28;20631;-60
2022/01/19 03:21:59;;;;;;;4.23;3.80;;;;;20.50;101776.00;;;;2089427;28;20219;-60
2022/01/19 03:23:07;;;;;;;3.93;3.53;;;;;20.50;101776.00;;;;2089051;28;20216;-60
2022/01/19 03:24:08;;;;;;;4.13;3.70;;;;;20.50;101780.00;;;;2089311;28;20221;-60
2022/01/19 03:25:12;;;;;;;4.40;4.00;;;;;20.50;101778.00;;;;2089285;28;20209;-60
2022/01/19 03:26:12;;;;;;;4.20;3.80;;;;;20.50;101784.00;;;;2089444;28;21165;-60
2022/01/19 03:27:13;;;;;;;5.10;4.07;;;;;20.50;101773.00;;;;2089101;28;20224;-60
2022/01/19 03:28:13;;;;;;;4.03;3.63;;;;;20.50;101781.00;;;;2089357;28;20197;-60
2022/01/19 03:29:13;;;;;;;4.73;3.80;;;;;20.50;101773.00;;;;2088687;28;20281;-60
2022/01/19 03:30:15;;;;;;;4.57;3.73;;;;;20.40;101763.00;;;;2089435;28;20212;-60
2022/01/19 03:31:15;;;;;;;4.20;3.80;;;;;20.40;101759.00;;;;2080302;28;20212;-60
2022/01/19 03:32:15;;;;;;;5.00;4.60;;;;;20.50;101756.00;;;;2079981;28;20275;-60
2022/01/19 03:33:16;;;;;;;4.07;3.63;;;;;20.50;101755.00;;;;2087406;28;20213;-60
2022/01/19 03:34:16;;;;;;;4.07;3.67;;;;;20.50;101748.00;;;;2087636;28;20217;-60
2022/01/19 03:35:17;;;;;;;4.07;3.67;;;;;20.40;101760.00;;;;2088790;28;20215;-60
2022/01/19 03:36:17;;;;;;;3.70;3.23;;;;;20.50;101745.00;;;;2088719;28;20358;-60
2022/01/19 03:37:17;;;;;;;3.80;3.50;;;;;20.50;101737.00;;;;2089229;28;20262;-60
2022/01/19 03:38:18;;;;;;;3.90;3.50;;;;;20.40;101735.00;;;;2082318;28;20244;-60
2022/01/19 03:39:18;;;;;;;4.10;3.67;;;;;20.40;101738.00;;;;2089218;28;20213;-60
2022/01/19 03:40:18;;;;;;;3.60;3.30;;;;;20.40;101737.00;;;;2089095;28;20216;-60
2022/01/19 03:41:19;;;;;;;2.93;2.73;;;;;20.40;101721.00;;;;2088998;28;20213;-60
2022/01/19 03:42:19;;;;;;;4.03;3.43;;;;;20.40;101720.00;;;;2089387;28;20215;-60
2022/01/19 03:43:19;;;;;;;3.97;3.50;;;;;20.40;101733.00;;;;2089230;28;20213;-60
2022/01/19 03:44:20;;;;;;;3.87;3.37;;;;;20.40;101734.00;;;;2089406;28;20216;-61
2022/01/19 03:45:20;;;;;;;3.70;3.40;;;;;20.40;101725.00;;;;2089168;28;20236;-60
2022/01/19 03:46:21;;;;;;;3.40;3.10;;;;;20.40;101726.00;;;;2089189;28;20209;-60
2022/01/19 03:47:22;;;;;;;3.42;3.13;;;;;20.40;101725.00;;;;2089160;28;20235;-60
2022/01/19 03:49:41;;;;;;;4.40;3.30;;;;;20.40;101730.00;;;;2088484;28;20216;-60
2022/01/19 03:50:42;;;;;;;2.93;2.73;;;;;20.40;101731.00;;;;2088893;28;20209;-60
2022/01/19 03:51:42;;;;;;;3.30;3.00;;;;;20.40;101731.00;;;;2088372;28;20224;-60
2022/01/19 03:52:42;;;;;;;3.27;2.93;;;;;20.40;101738.00;;;;2084660;28;20213;-60
2022/01/19 03:53:43;;;;;;;3.40;2.90;;;;;20.40;101734.00;;;;2089154;28;20273;-60
2022/01/19 03:54:43;;;;;;;3.23;2.93;;;;;20.40;101733.00;;;;2089219;28;20245;-60
2022/01/19 03:55:43;;;;;;;3.33;3.03;;;;;20.40;101726.00;;;;2089201;28;20212;-60
2022/01/19 03:56:44;;;;;;;3.47;3.17;;;;;20.40;101725.00;;;;2088939;28;20212;-60
2022/01/19 03:57:44;;;;;;;3.80;3.00;;;;;20.40;101727.00;;;;2089184;28;20208;-60
2022/01/19 03:58:44;;;;;;;2.93;2.70;;;;;20.40;101727.00;;;;2088361;28;20213;-60
2022/01/19 03:59:45;;;;;;;3.30;3.00;;;;;20.40;101730.00;;;;2087819;28;20209;-60
2022/01/19 04:00:46;;;;;;;3.60;3.30;;;;;20.40;101722.00;;;;2088661;28;20216;-61
2022/01/19 04:01:46;;;;;;;3.42;3.13;;;;;20.40;101718.00;;;;2089208;28;20283;-60
2022/01/19 04:02:48;;;;;;;3.00;2.80;;;;;20.40;101721.00;;;;2089279;28;20205;-61
2022/01/19 04:04:15;;;;;;;3.33;3.10;;;;;20.40;101715.00;;;;2089180;28;20219;-60
2022/01/19 04:05:24;;;;;;;3.50;3.20;;;;;20.40;101718.00;;;;2088088;28;20213;-60
2022/01/19 04:06:40;;;;;;;3.20;2.90;;;;;20.40;101712.00;;;;2088621;28;20205;-60
2022/01/19 04:07:40;;;;;;;3.45;3.15;;;;;20.40;101700.00;;;;2085645;28;20221;-60
2022/01/19 04:08:41;;;;;;;3.17;2.93;;;;;20.40;101698.00;;;;2088423;28;20212;-60
2022/01/19 04:09:42;;;;;;;3.60;3.17;;;;;20.40;101700.00;;;;2088256;28;20217;-60
2022/01/19 04:10:43;;;;;;;3.13;2.80;;;;;20.40;101696.00;;;;2087868;28;20212;-60
2022/01/19 04:11:43;;;;;;;2.97;2.77;;;;;20.40;101690.00;;;;2082690;28;20246;-60
2022/01/19 04:12:53;;;;;;;2.70;2.50;;;;;20.40;101691.00;;;;2096094;28;20204;-60
2022/01/19 04:14:39;;;;;;;3.03;2.50;;;;;20.40;101694.00;;;;2084636;28;20957;-60
2022/01/19 04:15:15;;;;;;;2.85;2.65;;;;;20.40;101696.00;;;;2074002;28;20212;-60
2022/01/19 04:16:15;;;;;;;3.30;3.00;;;;;20.40;101693.00;;;;2088187;28;20213;-60
2022/01/19 04:17:16;;;;;;;3.10;2.80;;;;;20.40;101700.00;;;;2089069;28;20708;-60
2022/01/19 04:18:17;;;;;;;2.83;2.63;;;;;20.40;101704.00;;;;2089112;28;20693;-60
2022/01/19 04:19:28;;;;;;;2.60;2.40;;;;;20.40;101696.00;;;;2088323;28;20216;-60
2022/01/19 04:20:29;;;;;;;3.47;2.70;;;;;20.40;101700.00;;;;2088158;28;20294;-60
2022/01/19 04:21:29;;;;;;;3.10;2.80;;;;;20.40;101704.00;;;;2089044;28;20216;-60
2022/01/19 04:22:29;;;;;;;3.20;2.90;;;;;20.40;101696.00;;;;2088409;28;20221;-60
2022/01/19 04:23:30;;;;;;;3.13;2.73;;;;;20.30;101695.00;;;;2088416;28;20237;-60
2022/01/19 04:24:30;;;;;;;2.87;2.53;;;;;20.30;101690.00;;;;2088678;28;20215;-60
2022/01/19 04:25:30;;;;;;;2.60;2.40;;;;;20.30;101688.00;;;;2089011;28;20217;-60
2022/01/19 04:26:32;;;;;;;2.83;2.63;;;;;20.30;101686.00;;;;2089179;28;20216;-60
2022/01/19 04:27:32;;;;;;;2.50;2.30;;;;;20.30;101688.00;;;;2088783;28;20271;-60
2022/01/19 04:28:33;;;;;;;2.50;2.30;;;;;20.30;101684.00;;;;2089145;28;20205;-60
2022/01/19 04:29:34;;;;;;;2.95;2.50;;;;;20.30;101682.00;;;;2088756;28;20625;-60
2022/01/19 04:30:35;;;;;;;4.47;2.83;;;;;20.30;101682.00;;;;2088856;28;20213;-60
2022/01/19 04:31:35;;;;;;;2.50;2.30;;;;;20.30;101682.00;;;;2088352;28;20282;-60
2022/01/19 04:32:43;;;;;;;3.07;2.77;;;;;20.30;101679.00;;;;2088770;28;20474;-60
2022/01/19 04:33:44;;;;;;;2.85;2.60;;;;;20.30;101683.00;;;;2084613;28;20680;-60
2022/01/19 04:34:47;;;;;;;2.60;2.30;;;;;20.30;101685.00;;;;2088302;28;20224;-60
2022/01/19 04:35:53;;;;;;;3.60;2.70;;;;;20.30;101682.00;;;;2087879;28;20209;-60
2022/01/19 04:38:32;;;;;;;2.40;2.20;;;;;20.30;101685.00;;;;2089104;28;20204;-61
2022/01/19 04:44:40;;;;;;;3.58;2.85;;;;;20.30;101675.00;;;;2076513;28;20236;-60
2022/01/19 04:48:38;;;;;;;2.60;2.40;;;;;20.30;101669.00;;;;2087996;28;20225;-60
2022/01/19 05:03:54;;;;;;;2.47;2.28;;;;;20.30;101659.00;;;;2088830;28;20224;-58
2022/01/19 05:05:14;;;;;;;3.33;2.00;;;;;20.30;101659.00;;;;2085918;28;20213;-58
2022/01/19 05:06:19;;;;;;;2.25;2.05;;;;;20.20;101655.00;;;;2085825;28;20205;-58
2022/01/19 05:07:32;;;;;;;2.20;2.00;;;;;20.30;101656.00;;;;2087943;28;20220;-58
2022/01/19 05:08:57;;;;;;;2.20;2.00;;;;;20.20;101663.00;;;;2085640;28;20294;-58
2022/01/19 05:13:50;;;;;;;2.40;2.20;;;;;20.20;101634.00;;;;2088245;28;20303;-58
2022/01/19 05:14:50;;;;;;;2.47;2.28;;;;;20.20;101638.00;;;;2086026;28;20223;-58
2022/01/19 05:15:51;;;;;;;2.00;1.90;;;;;20.20;101630.00;;;;2087845;28;20212;-57
2022/01/19 05:16:51;;;;;;;2.50;2.30;;;;;20.20;101620.00;;;;2087746;28;20213;-58
2022/01/19 05:17:51;;;;;;;1.87;1.77;;;;;20.20;101628.00;;;;2088416;28;20599;-58
2022/01/19 05:18:52;;;;;;;2.40;2.20;;;;;20.20;101628.00;;;;2088609;28;20877;-57
2022/01/19 05:19:52;;;;;;;1.90;1.80;;;;;20.20;101620.00;;;;2088625;28;20707;-57
2022/01/19 05:20:52;;;;;;;2.07;1.90;;;;;20.20;101619.00;;;;2088464;28;20217;-58
2022/01/19 05:21:53;;;;;;;2.33;2.13;;;;;20.20;101609.00;;;;2088557;28;20223;-58
2022/01/19 05:22:53;;;;;;;1.87;1.67;;;;;20.20;101618.00;;;;2088494;28;20212;-58
2022/01/19 05:23:53;;;;;;;2.00;1.80;;;;;20.20;101602.00;;;;2088569;28;20274;-58
2022/01/19 05:24:54;;;;;;;2.20;2.00;;;;;20.20;101609.00;;;;2088591;28;20233;-58
2022/01/19 05:25:54;;;;;;;2.00;1.90;;;;;20.20;101606.00;;;;2087758;28;20709;-58
2022/01/19 05:26:54;;;;;;;1.87;1.77;;;;;20.20;101601.00;;;;2088460;28;20212;-58
2022/01/19 05:27:55;;;;;;;2.30;2.10;;;;;20.20;101594.00;;;;2088116;28;20685;-58
2022/01/19 05:28:55;;;;;;;2.00;1.90;;;;;20.20;101601.00;;;;2087728;28;20692;-58
2022/01/19 05:29:55;;;;;;;2.63;1.90;;;;;20.20;101601.00;;;;2087943;28;20224;-58
2022/01/19 05:30:56;;;;;;;2.07;1.87;;;;;20.20;101596.00;;;;2087988;28;20216;-58
2022/01/19 05:31:56;;;;;;;1.70;1.60;;;;;20.20;101596.00;;;;2088161;28;20227;-58
2022/01/19 05:32:56;;;;;;;1.73;1.63;;;;;20.20;101600.00;;;;2087791;28;20224;-58
2022/01/19 05:33:57;;;;;;;2.07;1.97;;;;;20.20;101602.00;;;;2088077;28;20304;-58
2022/01/19 05:34:57;;;;;;;1.60;1.50;;;;;20.20;101595.00;;;;2088136;28;20271;-58
2022/01/19 05:35:57;;;;;;;2.30;2.10;;;;;20.20;101593.00;;;;2087863;28;20248;-58
2022/01/19 05:36:58;;;;;;;1.77;1.67;;;;;20.20;101588.00;;;;2085505;28;20223;-58
2022/01/19 05:37:58;;;;;;;2.20;2.00;;;;;20.20;101585.00;;;;2088177;28;20213;-58
2022/01/19 05:39:00;;;;;;;2.10;2.00;;;;;20.20;101594.00;;;;2087795;28;20228;-58
2022/01/19 05:40:01;;;;;;;1.77;1.67;;;;;20.20;101592.00;;;;2087315;28;20674;-58
2022/01/19 05:41:01;;;;;;;2.83;1.73;;;;;20.20;101588.00;;;;2088339;28;20228;-58
2022/01/19 05:42:02;;;;;;;2.03;1.83;;;;;20.20;101591.00;;;;2087736;28;20252;-58
2022/01/19 05:43:02;;;;;;;2.33;1.60;;;;;20.20;101587.00;;;;2088157;28;20221;-58
2022/01/19 05:44:03;;;;;;;1.80;1.70;;;;;20.20;101587.00;;;;2087943;28;20217;-58
2022/01/19 05:45:04;;;;;;;1.77;1.67;;;;;20.20;101579.00;;;;2087864;28;20213;-58
2022/01/19 05:46:04;;;;;;;2.37;1.90;;;;;20.20;101578.00;;;;2087718;28;20216;-58
2022/01/19 05:47:05;;;;;;;1.90;1.80;;;;;20.20;101576.00;;;;2084711;28;20510;-58
2022/01/19 05:48:07;;;;;;;1.60;1.50;;;;;20.20;101574.00;;;;2088127;28;20228;-58
2022/01/19 05:49:07;;;;;;;2.63;2.20;;;;;20.20;101566.00;;;;2087829;28;20657;-58
2022/01/19 05:50:08;;;;;;;1.97;1.87;;;;;20.20;101578.00;;;;2087995;28;20217;-58
2022/01/19 05:51:08;;;;;;;1.60;1.50;;;;;20.20;101570.00;;;;2087552;28;20213;-58
2022/01/19 05:52:09;;;;;;;1.93;1.83;;;;;20.20;101570.00;;;;2087217;28;20401;-58
2022/01/19 05:53:09;;;;;;;1.70;1.60;;;;;20.20;101573.00;;;;2079135;28;20324;-58
2022/01/19 05:54:09;;;;;;;1.63;1.53;;;;;20.20;101572.00;;;;2087234;28;20221;-58
2022/01/19 05:55:10;;;;;;;1.90;1.53;;;;;20.20;101571.00;;;;2088124;28;20595;-58
2022/01/19 05:56:10;;;;;;;1.57;1.47;;;;;20.20;101574.00;;;;2087759;28;20579;-58
2022/01/19 05:57:11;;;;;;;1.63;1.53;;;;;20.20;101568.00;;;;2081754;28;20229;-58
2022/01/19 05:58:11;;;;;;;1.70;1.60;;;;;20.20;101570.00;;;;2088164;28;20229;-58
2022/01/19 05:59:11;;;;;;;1.80;1.70;;;;;20.20;101565.00;;;;2087839;28;20213;-58
2022/01/19 06:00:12;;;;;;;1.70;1.60;;;;;20.20;101568.00;;;;2087574;28;20252;-58
2022/01/19 06:01:12;;;;;;;2.77;2.03;;;;;20.10;101565.00;;;;2087753;28;20220;-57
2022/01/19 06:02:13;;;;;;;1.63;1.53;;;;;20.10;101570.00;;;;2087695;28;20247;-58
2022/01/19 06:03:20;;;;;;;1.60;1.40;;;;;20.20;101564.00;;;;2092531;27;20541;-46
2022/01/19 06:04:20;;;;;;;1.60;1.50;;;;;20.20;101570.00;;;;2082922;28;20225;-46
2022/01/19 06:05:20;;;;;;;1.57;1.47;;;;;20.20;101557.00;;;;2078293;28;20213;-45
2022/01/19 06:06:21;;;;;;;1.97;1.60;;;;;20.20;101558.00;;;;2083991;28;20217;-46
2022/01/19 06:07:28;;;;;;;2.70;1.50;;;;;20.20;101558.00;;;;2085555;28;20324;-46
2022/01/19 06:08:40;;;;;;;1.70;1.58;;;;;20.20;101555.00;;;;2085269;28;20626;-46
2022/01/19 06:10:44;;;;;;;1.45;1.35;;;;;20.20;101538.00;;;;2091917;28;20303;-46
2022/01/19 06:11:45;;;;;;;2.35;1.50;;;;;20.20;101543.00;;;;2101772;28;20216;-46
2022/01/19 06:12:45;;;;;;;1.60;1.50;;;;;20.20;101538.00;;;;2097642;28;20208;-46
2022/01/19 06:13:45;;;;;;;1.80;1.70;;;;;20.20;101543.00;;;;2085010;28;20209;-46
2022/01/19 06:14:46;;;;;;;1.40;1.20;;;;;20.20;101535.00;;;;2085133;28;20236;-46
2022/01/19 06:15:46;;;;;;;1.37;1.27;;;;;20.30;101532.00;;;;2085506;28;20217;-46
2022/01/19 06:16:46;;;;;;;1.50;1.40;;;;;20.30;101541.00;;;;2085749;28;20221;-46
2022/01/19 06:17:47;;;;;;;1.40;1.30;;;;;20.30;101546.00;;;;2080982;28;20221;-46
2022/01/19 06:18:47;;;;;;;1.43;1.33;;;;;20.30;101544.00;;;;2085143;28;20283;-46